Time;durP1;ratioP1;P1;durP2;ratioP2;P2;SDS_P1;SDS_P2;PMS_P1;PMS_P2;Temp;Humidity;BMP_temperature;BMP_pressure;BME280_temperature;BME280_humidity;BME280_pressure;Samples;Min_cycle;Max_cycle;Signal;HPM_P1;HPM_P2
2022/01/17 00:01:07;;;;;;;17.30;12.27;;;;;;;2.71;100.00;97580.09;5031174;27;105472;-61
2022/01/17 00:03:36;;;;;;;14.90;11.70;;;;;;;2.73;100.00;97569.41;5035308;27;105248;-61
2022/01/17 00:06:03;;;;;;;17.03;12.17;;;;;;;2.71;100.00;97571.38;5032455;27;104961;-61
2022/01/17 00:08:31;;;;;;;15.60;11.07;;;;;;;2.69;100.00;97568.13;5032240;27;105361;-61
2022/01/17 00:10:58;;;;;;;17.03;12.27;;;;;;;2.69;100.00;97568.13;5050566;27;101758;-61
2022/01/17 00:13:27;;;;;;;15.63;12.13;;;;;;;2.70;100.00;97564.50;5050500;27;102862;-61
2022/01/17 00:15:58;;;;;;;15.33;10.77;;;;;;;2.73;100.00;97559.72;5031808;27;105246;-61
2022/01/17 00:18:52;;;;;;;15.37;11.00;;;;;;;2.77;100.00;97554.91;5032468;27;102149;-61
2022/01/17 00:21:19;;;;;;;15.97;11.17;;;;;;;2.77;100.00;97555.75;5050077;27;102673;-61
2022/01/17 00:23:46;;;;;;;14.73;11.07;;;;;;;2.76;100.00;97553.28;5050030;27;102907;-61
2022/01/17 00:26:12;;;;;;;17.60;11.53;;;;;;;2.76;100.00;97562.00;5035686;27;102101;-61
2022/01/17 00:28:39;;;;;;;16.27;11.37;;;;;;;2.80;100.00;97560.63;5031493;27;105567;-61
2022/01/17 00:31:06;;;;;;;14.60;10.20;;;;;;;2.79;100.00;97563.47;5032219;27;102123;-61
2022/01/17 00:33:34;;;;;;;13.53;9.90;;;;;;;2.85;100.00;97562.78;5032193;27;104087;-61
2022/01/17 00:36:01;;;;;;;15.77;10.30;;;;;;;2.86;100.00;97561.78;5050569;27;102715;-61
2022/01/17 00:38:30;;;;;;;12.43;10.30;;;;;;;2.84;100.00;97554.06;5032168;27;101951;-61
2022/01/17 00:40:59;;;;;;;15.73;10.80;;;;;;;2.86;100.00;97557.34;5032168;27;105514;-61
2022/01/17 00:43:26;;;;;;;13.83;10.40;;;;;;;2.89;100.00;97545.69;5031258;27;104531;-61
2022/01/17 00:45:53;;;;;;;14.43;10.00;;;;;;;2.91;100.00;97549.75;5031799;27;102402;-61
2022/01/17 00:48:20;;;;;;;14.43;10.63;;;;;;;2.94;100.00;97540.69;5034477;27;105505;-61
2022/01/17 00:50:47;;;;;;;13.50;10.00;;;;;;;2.94;100.00;97545.94;5031906;27;102061;-61
2022/01/17 00:53:14;;;;;;;12.23;9.60;;;;;;;2.97;100.00;97545.59;5031500;27;104598;-61
2022/01/17 00:55:43;;;;;;;12.53;9.80;;;;;;;3.01;100.00;97546.91;5031296;27;105310;-61
2022/01/17 00:58:10;;;;;;;14.67;9.90;;;;;;;3.06;100.00;97544.56;5032780;27;102060;-61
2022/01/17 01:00:38;;;;;;;13.67;9.40;;;;;;;3.09;100.00;97552.09;5032671;27;106487;-61
2022/01/17 01:03:05;;;;;;;13.53;10.30;;;;;;;3.10;100.00;97556.34;5031683;27;105236;-61
2022/01/17 01:05:32;;;;;;;13.63;10.07;;;;;;;3.03;100.00;97561.50;5031481;27;101876;-61
2022/01/17 01:07:59;;;;;;;14.80;9.80;;;;;;;3.01;100.00;97560.03;5031535;27;105194;-61
2022/01/17 01:10:27;;;;;;;11.27;8.70;;;;;;;3.05;100.00;97559.50;5035011;27;105945;-61
2022/01/17 01:12:55;;;;;;;11.80;9.27;;;;;;;3.13;100.00;97553.38;5032600;27;105347;-61
2022/01/17 01:15:34;;;;;;;14.70;9.80;;;;;;;3.08;100.00;97567.06;5031057;27;105776;-61
2022/01/17 01:18:13;;;;;;;13.63;9.63;;;;;;;2.96;100.00;97565.78;5032268;27;101792;-61
2022/01/17 01:21:02;;;;;;;12.73;9.23;;;;;;;3.04;100.00;97570.19;5032295;27;104838;-61
2022/01/17 01:29:00;;;;;;;11.27;8.60;;;;;;;3.15;100.00;97572.41;5032161;27;105018;-61
2022/01/17 01:31:40;;;;;;;12.63;9.07;;;;;;;3.13;100.00;97577.03;5031723;27;103907;-61
2022/01/17 01:34:08;;;;;;;14.13;8.40;;;;;;;3.10;100.00;97578.19;5035678;27;101779;-61
2022/01/17 01:36:37;;;;;;;11.93;8.27;;;;;;;3.10;100.00;97577.38;5031435;27;105758;-61
2022/01/17 01:39:06;;;;;;;12.90;8.03;;;;;;;3.05;100.00;97575.28;5032177;27;101868;-61
2022/01/17 01:41:40;;;;;;;12.30;8.23;;;;;;;3.09;100.00;97586.25;5030704;27;106079;-61
2022/01/17 01:44:13;;;;;;;11.10;7.93;;;;;;;3.10;100.00;97587.88;5031007;27;105471;-61
2022/01/17 01:46:40;;;;;;;10.63;7.77;;;;;;;3.15;100.00;97578.50;5032018;27;101981;-61
2022/01/17 01:49:07;;;;;;;11.00;7.63;;;;;;;3.21;100.00;97587.47;5031834;27;105134;-61
2022/01/17 01:51:34;;;;;;;9.83;7.80;;;;;;;3.25;100.00;97586.13;5031418;27;105275;-61
2022/01/17 01:54:02;;;;;;;9.27;7.23;;;;;;;3.23;100.00;97588.13;5031419;27;102201;-61
2022/01/17 01:56:29;;;;;;;10.13;7.67;;;;;;;3.28;100.00;97594.47;5034637;27;103921;-61
2022/01/17 01:58:57;;;;;;;9.43;6.73;;;;;;;3.33;100.00;97588.72;5031400;27;102069;-61
2022/01/17 02:01:26;;;;;;;9.40;6.67;;;;;;;3.30;100.00;97586.44;5031375;27;105634;-61
2022/01/17 02:03:53;;;;;;;8.73;6.67;;;;;;;3.30;100.00;97595.13;5031096;27;103738;-61
2022/01/17 02:06:20;;;;;;;7.93;6.27;;;;;;;3.31;100.00;97591.50;5032007;27;101949;-61
2022/01/17 02:08:47;;;;;;;8.30;6.47;;;;;;;3.33;100.00;97591.34;5035313;27;104927;-61
2022/01/17 02:11:15;;;;;;;9.17;6.20;;;;;;;3.34;100.00;97585.88;5034640;27;104378;-61
2022/01/17 02:13:42;;;;;;;8.77;6.60;;;;;;;3.38;100.00;97579.28;5034410;27;101860;-61
2022/01/17 02:16:13;;;;;;;8.83;6.60;;;;;;;3.41;100.00;97572.84;5037930;27;105628;-61
2022/01/17 02:18:44;;;;;;;7.00;5.63;;;;;;;3.54;100.00;97567.81;5035025;27;101938;-61
2022/01/17 02:21:19;;;;;;;7.80;5.40;;;;;;;3.61;100.00;97568.75;5053425;27;102371;-61
2022/01/17 02:23:48;;;;;;;6.67;5.43;;;;;;;3.63;100.00;97569.38;5034272;27;105412;-61
2022/01/17 02:26:16;;;;;;;6.47;5.10;;;;;;;3.60;100.00;97564.50;5035159;27;101908;-61
2022/01/17 02:28:49;;;;;;;6.57;5.03;;;;;;;3.60;100.00;97570.56;5035061;27;105372;-61
2022/01/17 02:31:17;;;;;;;7.00;4.97;;;;;;;3.62;100.00;97567.75;5052661;27;101970;-61
2022/01/17 02:33:44;;;;;;;6.40;4.80;;;;;;;3.61;100.00;97560.84;5018371;27;102152;-61
2022/01/17 02:36:13;;;;;;;6.33;5.10;;;;;;;3.62;100.00;97562.50;5034470;27;105275;-61
2022/01/17 02:38:40;;;;;;;7.03;5.13;;;;;;;3.60;100.00;97554.78;5037703;27;105177;-61
2022/01/17 02:41:08;;;;;;;5.70;4.63;;;;;;;3.56;100.00;97556.13;5053244;27;101991;-61
2022/01/17 02:43:35;;;;;;;5.87;5.03;;;;;;;3.57;100.00;97555.16;5052441;27;102577;-61
2022/01/17 02:48:47;;;;;;;7.07;5.20;;;;;;;3.50;100.00;97559.47;5052865;27;102765;-61
2022/01/17 02:51:16;;;;;;;7.00;4.97;;;;;;;3.39;100.00;97559.09;5052657;27;103090;-61
2022/01/17 02:53:42;;;;;;;6.43;4.80;;;;;;;3.30;100.00;97562.75;5034437;27;101741;-61
2022/01/17 02:56:11;;;;;;;6.83;5.17;;;;;;;3.22;100.00;97561.00;5052779;27;102894;-61
2022/01/17 02:58:40;;;;;;;5.33;4.20;;;;;;;3.15;100.00;97564.50;5052489;27;101890;-61
2022/01/17 03:01:10;;;;;;;6.10;5.10;;;;;;;3.08;100.00;97550.44;5037891;27;101980;-61
2022/01/17 03:03:37;;;;;;;6.27;4.90;;;;;;;3.03;100.00;97527.34;5051969;27;103966;-61
2022/01/17 03:06:05;;;;;;;7.43;5.20;;;;;;;3.01;100.00;97520.63;5034276;27;101880;-61
2022/01/17 03:08:38;;;;;;;5.90;4.90;;;;;;;2.91;100.00;97518.25;5053016;27;102937;-61
2022/01/17 03:11:08;;;;;;;5.90;4.80;;;;;;;2.87;100.00;97513.50;5033522;27;104033;-61
2022/01/17 03:13:38;;;;;;;7.70;5.43;;;;;;;2.84;100.00;97509.41;5052620;27;101889;-62
2022/01/17 03:16:09;;;;;;;5.77;4.53;;;;;;;2.84;100.00;97501.53;5052603;27;102289;-61
2022/01/17 03:18:40;;;;;;;6.83;4.90;;;;;;;2.84;100.00;97498.09;5033090;27;105979;-61
2022/01/17 03:21:09;;;;;;;7.13;4.33;;;;;;;2.87;100.00;97505.59;5052471;27;101691;-61
2022/01/17 03:23:39;;;;;;;4.80;4.30;;;;;;;2.92;100.00;97511.16;5055234;27;102417;-61
2022/01/17 03:26:07;;;;;;;5.20;3.97;;;;;;;2.93;100.00;97500.47;5034202;27;102122;-61
2022/01/17 03:28:35;;;;;;;5.43;4.23;;;;;;;2.94;100.00;97506.53;5052279;27;102926;-61
2022/01/17 03:31:04;;;;;;;6.30;4.60;;;;;;;2.95;100.00;97501.09;5052045;27;102774;-61
2022/01/17 03:33:31;;;;;;;4.10;3.50;;;;;;;3.01;100.00;97510.13;5034131;27;102005;-61
2022/01/17 03:35:58;;;;;;;4.33;3.93;;;;;;;3.01;100.00;97510.13;5052216;27;102491;-61
2022/01/17 03:38:29;;;;;;;4.87;3.93;;;;;;;3.01;100.00;97510.13;5051220;27;104744;-61
2022/01/17 03:40:59;;;;;;;4.20;3.73;;;;;;;3.03;100.00;97508.13;5052308;27;101881;-61
2022/01/17 03:43:27;;;;;;;3.80;3.40;;;;;;;3.07;100.00;97509.41;5052170;27;102514;-61
2022/01/17 03:45:57;;;;;;;4.83;3.80;;;;;;;3.07;100.00;97515.47;5055108;27;102836;-61
2022/01/17 03:48:24;;;;;;;4.27;3.87;;;;;;;3.10;100.00;97506.41;5051520;27;104060;-61
2022/01/17 03:50:51;;;;;;;4.20;3.80;;;;;;;3.14;100.00;97523.47;5051233;27;103239;-61
2022/01/17 03:53:18;;;;;;;5.03;3.60;;;;;;;3.21;100.00;97516.50;5033387;27;101876;-61
2022/01/17 03:55:46;;;;;;;4.67;3.67;;;;;;;3.22;100.00;97520.78;5051891;27;102513;-61
2022/01/17 03:58:14;;;;;;;4.30;3.67;;;;;;;3.28;100.00;97523.50;5051113;27;104196;-61
2022/01/17 04:00:44;;;;;;;5.40;4.17;;;;;;;3.34;100.00;97517.53;5051770;27;102049;-61
2022/01/17 04:03:12;;;;;;;5.37;3.80;;;;;;;3.39;100.00;97524.91;5052000;27;102686;-61
2022/01/17 04:05:40;;;;;;;5.30;3.90;;;;;;;3.43;100.00;97531.41;5050765;27;102762;-61
2022/01/17 04:08:08;;;;;;;3.97;3.33;;;;;;;3.41;100.00;97520.28;5055199;27;101700;-61
2022/01/17 04:10:35;;;;;;;4.13;3.60;;;;;;;3.47;100.00;97516.94;5051220;27;102847;-61
2022/01/17 04:13:04;;;;;;;4.83;3.60;;;;;;;3.53;100.00;97517.03;5033212;27;101893;-61
2022/01/17 04:15:35;;;;;;;4.30;3.70;;;;;;;3.62;100.00;97496.72;5033116;27;105134;-61
2022/01/17 04:18:05;;;;;;;5.57;3.70;;;;;;;3.63;100.00;97493.94;5032571;27;105184;-61
2022/01/17 04:20:32;;;;;;;3.87;3.37;;;;;;;3.61;100.00;97493.28;5033230;27;102058;-61
2022/01/17 04:23:02;;;;;;;3.30;3.00;;;;;;;3.61;100.00;97500.38;5050267;27;105350;-61
2022/01/17 04:25:32;;;;;;;3.80;3.43;;;;;;;3.59;100.00;97486.56;5032624;27;103791;-61
2022/01/17 04:28:00;;;;;;;5.07;3.43;;;;;;;3.57;100.00;97488.56;5036334;27;102413;-61
2022/01/17 04:30:30;;;;;;;4.87;3.73;;;;;;;3.59;100.00;97491.81;5031575;27;106912;-61
2022/01/17 04:33:00;;;;;;;3.73;3.37;;;;;;;3.58;100.00;97488.41;5032835;27;102037;-61
2022/01/17 04:35:29;;;;;;;3.60;3.07;;;;;;;3.60;100.00;97498.75;5033115;27;105500;-61
2022/01/17 04:37:59;;;;;;;3.60;3.17;;;;;;;3.61;100.00;97476.69;5032366;27;105847;-61
2022/01/17 04:40:26;;;;;;;3.57;2.97;;;;;;;3.58;100.00;97477.03;5032771;27;102294;-61
2022/01/17 04:42:56;;;;;;;2.80;2.60;;;;;;;3.58;100.00;97487.56;5051014;27;102315;-61
2022/01/17 04:45:23;;;;;;;3.80;3.37;;;;;;;3.59;100.00;97497.09;5050851;27;102645;-61
2022/01/17 04:47:52;;;;;;;3.73;3.33;;;;;;;3.57;100.00;97488.56;5032452;27;102066;-61
2022/01/17 04:50:22;;;;;;;3.00;2.70;;;;;;;3.61;100.00;97485.38;5035577;27;105398;-61
2022/01/17 04:52:50;;;;;;;3.30;2.93;;;;;;;3.60;100.00;97477.69;5051085;27;101802;-61
2022/01/17 04:55:20;;;;;;;3.07;2.77;;;;;;;3.62;100.00;97471.25;5032784;27;103854;-61
2022/01/17 04:57:48;;;;;;;3.47;2.97;;;;;;;3.65;100.00;97473.50;5032166;27;104163;-61
2022/01/17 05:00:18;;;;;;;2.50;2.30;;;;;;;3.69;100.00;97479.22;5051192;27;101725;-61
2022/01/17 05:02:45;;;;;;;3.23;2.93;;;;;;;3.68;100.00;97482.88;5032142;27;103577;-61
2022/01/17 05:05:13;;;;;;;2.83;2.60;;;;;;;3.73;100.00;97480.50;5050403;27;103112;-61
2022/01/17 05:07:44;;;;;;;2.50;2.30;;;;;;;3.77;100.00;97487.03;5051427;27;101928;-61
2022/01/17 05:10:13;;;;;;;2.47;2.27;;;;;;;3.86;100.00;97499.09;5050495;27;102315;-64
2022/01/17 05:12:47;;;;;;;2.97;2.63;;;;;;;3.85;100.00;97498.28;5015872;28;106118;-63
2022/01/17 05:15:26;;;;;;;2.47;2.27;;;;;;;3.88;100.00;97499.75;5045858;27;105463;-63
2022/01/17 05:19:47;;;;;;;2.50;2.30;;;;;;;3.89;100.00;97501.38;5046020;27;105340;-63
2022/01/17 05:21:15;;;;;;;3.87;2.30;;;;;;;3.84;100.00;97509.00;5029095;27;102206;-63
2022/01/17 05:23:43;;;;;;;2.53;2.13;;;;;;;3.83;100.00;97504.75;5032374;27;105090;-63
2022/01/17 05:26:10;;;;;;;2.53;2.33;;;;;;;3.90;100.00;97503.84;5032187;27;105641;-61
2022/01/17 05:28:39;;;;;;;2.47;2.27;;;;;;;3.94;100.00;97509.53;5032869;27;101858;-61
2022/01/17 05:31:06;;;;;;;2.30;2.10;;;;;;;3.99;100.00;97502.72;5032705;27;105710;-61
2022/01/17 05:33:33;;;;;;;3.20;2.80;;;;;;;3.97;100.00;97511.78;5032151;27;103758;-61
2022/01/17 05:36:00;;;;;;;2.90;2.50;;;;;;;3.92;100.00;97516.78;5054692;27;101784;-61
2022/01/17 05:38:31;;;;;;;2.80;2.50;;;;;;;3.87;100.00;97521.81;5032110;27;105590;-60
2022/01/17 05:44:22;;;;;;;3.80;3.40;;;;;;;3.65;100.00;97517.44;5032524;27;104339;-61
2022/01/17 05:46:50;;;;;;;3.80;3.40;;;;;;;3.57;100.00;97523.59;5031224;27;106627;-61
2022/01/17 05:50:03;;;;;;;3.20;2.90;;;;;;;3.54;100.00;97517.84;5032354;27;101958;-61
2022/01/17 05:52:30;;;;;;;4.40;3.20;;;;;;;3.58;100.00;97508.59;5032495;27;104011;-60
2022/01/17 05:54:57;;;;;;;3.03;2.73;;;;;;;3.53;100.00;97508.31;5031994;27;103737;-60
2022/01/17 05:57:29;;;;;;;3.70;3.23;;;;;;;3.52;100.00;97515.41;5050887;27;101969;-61
2022/01/17 05:59:58;;;;;;;3.93;3.40;;;;;;;3.50;100.00;97522.66;5035322;27;103620;-60
2022/01/17 06:02:26;;;;;;;3.83;3.40;;;;;;;3.46;100.00;97525.81;5050355;27;101817;-61
2022/01/17 06:04:53;;;;;;;3.40;3.10;;;;;;;3.45;100.00;97521.56;5032545;27;104958;-62
2022/01/17 06:07:21;;;;;;;4.13;2.97;;;;;;;3.46;100.00;97536.34;5031860;27;105786;-63
2022/01/17 06:09:48;;;;;;;3.43;3.10;;;;;;;3.48;100.00;97547.47;5032395;27;101830;-62
2022/01/17 06:12:17;;;;;;;3.20;2.90;;;;;;;3.54;100.00;97552.03;5032125;27;103659;-62
2022/01/17 06:14:44;;;;;;;4.27;3.10;;;;;;;3.59;100.00;97560.19;5027336;28;105556;-62
2022/01/17 06:17:13;;;;;;;3.80;3.30;;;;;;;3.59;100.00;97553.13;5045616;27;101746;-62
2022/01/17 06:19:40;;;;;;;2.77;2.57;;;;;;;3.69;100.00;97564.22;5012041;28;104811;-63
2022/01/17 06:22:10;;;;;;;3.00;2.40;;;;;;;3.72;100.00;97563.06;5014620;28;101939;-62
2022/01/17 06:24:37;;;;;;;2.43;2.23;;;;;;;3.78;100.00;97557.06;5045651;27;105299;-62
2022/01/17 06:27:04;;;;;;;2.60;2.17;;;;;;;3.85;100.00;97534.31;5011356;28;105707;-62
2022/01/17 06:29:52;;;;;;;2.20;2.00;;;;;;;3.90;100.00;97529.31;5023200;27;102306;-62
2022/01/17 06:32:20;;;;;;;2.33;2.20;;;;;;;3.88;100.00;97521.59;5032030;27;106035;-62
2022/01/17 06:34:47;;;;;;;2.17;2.00;;;;;;;3.95;100.00;97526.97;5031316;27;105159;-62
2022/01/17 06:37:14;;;;;;;4.63;3.20;;;;;;;4.11;100.00;97527.59;5031787;27;101931;-62
2022/01/17 06:39:41;;;;;;;4.37;3.57;;;;;;;4.21;100.00;97528.13;5031965;27;106072;-62
2022/01/17 06:42:10;;;;;;;5.00;3.67;;;;;;;4.22;100.00;97523.69;5031233;28;105218;-62
2022/01/17 06:44:37;;;;;;;4.60;3.23;;;;;;;4.25;100.00;97518.06;5011589;28;103818;-62
2022/01/17 06:47:04;;;;;;;4.90;4.27;;;;;;;4.28;100.00;97518.50;5037614;27;103112;-62
2022/01/17 06:49:38;;;;;;;3.43;3.00;;;;;;;4.36;100.00;97526.28;5031371;27;101997;-60
2022/01/17 06:52:06;;;;;;;2.80;2.60;;;;;;;4.38;100.00;97518.22;5031842;27;105636;-61
2022/01/17 06:54:33;;;;;;;2.53;2.10;;;;;;;4.49;100.00;97517.75;5031060;28;105567;-61
2022/01/17 06:57:00;;;;;;;2.13;2.00;;;;;;;4.48;100.00;97524.81;5033480;28;101870;-63
2022/01/17 07:00:05;;;;;;;2.67;1.90;;;;;;;4.49;100.00;97509.84;5031819;27;105431;-61
2022/01/17 07:02:32;;;;;;;1.80;1.70;;;;;;;4.52;100.00;97515.56;5028110;27;105225;-61
2022/01/17 07:05:02;;;;;;;2.07;1.90;;;;;;;4.60;100.00;97531.25;5038760;27;101895;-60
2022/01/17 07:07:38;;;;;;;1.67;1.57;;;;;;;4.63;100.00;97517.69;5034712;27;104734;-61
2022/01/17 07:10:06;;;;;;;1.90;1.80;;;;;;;4.64;100.00;97523.81;5034837;27;102300;-60
2022/01/17 07:12:50;;;;;;;2.10;1.70;;;;;;;4.66;100.00;97532.31;5053233;27;102847;-60
2022/01/17 07:15:17;;;;;;;2.37;1.70;;;;;;;4.73;100.00;97549.84;5013922;28;105807;-61
2022/01/17 07:17:58;;;;;;;1.80;1.50;;;;;;;4.78;100.00;97563.28;5014958;28;101760;-61
2022/01/17 07:20:27;;;;;;;1.60;1.50;;;;;;;4.79;100.00;97591.25;5014945;28;105187;-61
2022/01/17 07:22:53;;;;;;;1.70;1.60;;;;;;;4.79;100.00;97603.59;5014415;28;105157;-61
2022/01/17 07:25:20;;;;;;;1.93;1.80;;;;;;;4.77;100.00;97626.69;5022955;27;101928;-61
2022/01/17 07:27:52;;;;;;;1.60;1.50;;;;;;;4.75;100.00;97636.63;5037670;27;104839;-61
2022/01/17 07:30:21;;;;;;;1.40;1.30;;;;;;;4.79;100.00;97658.94;5034937;27;102142;-60
2022/01/17 07:32:47;;;;;;;1.87;1.73;;;;;;;4.78;100.00;97667.84;5034698;27;104777;-60
2022/01/17 07:35:15;;;;;;;1.60;1.50;;;;;;;4.76;100.00;97696.22;5033965;27;105069;-61
2022/01/17 07:37:45;;;;;;;2.47;2.10;;;;;;;4.83;100.00;97699.75;5034328;27;102028;-60
2022/01/17 07:40:13;;;;;;;2.43;2.23;;;;;;;4.76;100.00;97696.22;5034563;27;103659;-60
2022/01/17 07:42:53;;;;;;;2.53;2.20;;;;;;;4.71;100.00;97677.50;5030394;28;105546;-60
2022/01/17 07:45:21;;;;;;;2.00;1.90;;;;;;;4.69;100.00;97666.34;5014331;28;101778;-61
2022/01/17 07:48:10;;;;;;;2.13;1.93;;;;;;;4.69;100.00;97674.25;5014257;28;106474;-61
2022/01/17 07:50:39;;;;;;;2.57;2.00;;;;;;;4.66;100.00;97682.50;5050718;27;105021;-60
2022/01/17 07:53:07;;;;;;;1.87;1.73;;;;;;;4.65;100.00;97692.19;5032563;28;102923;-61
2022/01/17 07:55:34;;;;;;;2.17;1.97;;;;;;;4.63;100.00;97674.97;5013590;28;105316;-61
2022/01/17 07:58:05;;;;;;;1.97;1.80;;;;;;;4.59;100.00;97648.16;5047835;27;101959;-61
2022/01/17 08:00:33;;;;;;;2.30;2.07;;;;;;;4.56;100.00;97650.34;5014286;28;105335;-61
2022/01/17 08:03:06;;;;;;;2.40;2.20;;;;;;;4.55;100.00;97648.69;5013518;28;105216;-60
2022/01/17 08:05:33;;;;;;;2.43;2.23;;;;;;;4.54;100.00;97650.50;5012864;28;101898;-61
2022/01/17 08:08:15;;;;;;;2.80;2.03;;;;;;;4.52;100.00;97649.06;5034230;27;106961;-60
2022/01/17 08:10:42;;;;;;;2.10;1.90;;;;;;;4.53;100.00;97648.88;5030072;28;104346;-60
2022/01/17 08:13:09;;;;;;;3.63;2.10;;;;;;;4.50;100.00;97657.16;5017336;27;102007;-61
2022/01/17 08:15:38;;;;;;;2.63;2.10;;;;;;;4.53;100.00;97654.16;5033197;27;105772;-61
2022/01/17 08:18:11;;;;;;;2.30;2.10;;;;;;;4.52;100.00;97655.16;5033976;27;102016;-62
2022/01/17 08:20:38;;;;;;;2.47;2.20;;;;;;;4.54;100.00;97657.63;5032175;28;102878;-61
2022/01/17 08:23:07;;;;;;;2.67;2.47;;;;;;;4.56;100.00;97666.13;5047832;27;105646;-62
2022/01/17 08:25:36;;;;;;;2.20;2.00;;;;;;;4.55;100.00;97664.50;5052414;27;101805;-62
2022/01/17 08:28:06;;;;;;;2.97;2.50;;;;;;;4.57;100.00;97660.69;5052176;27;102596;-61
2022/01/17 08:30:33;;;;;;;2.20;2.00;;;;;;;4.58;100.00;97664.97;5029717;28;106039;-62
2022/01/17 08:33:02;;;;;;;2.60;2.37;;;;;;;4.64;100.00;97651.06;5036161;27;102362;-61
2022/01/17 08:35:30;;;;;;;3.20;2.47;;;;;;;4.65;100.00;97641.34;5033030;27;104082;-61
2022/01/17 08:38:31;;;;;;;2.87;2.33;;;;;;;4.66;100.00;97650.88;5033678;27;101920;-61
2022/01/17 08:41:34;;;;;;;2.70;2.50;;;;;;;4.66;100.00;97635.91;5030215;28;105554;-62
2022/01/17 08:44:01;;;;;;;3.80;2.43;;;;;;;4.73;100.00;97628.06;5046409;27;105841;-61
2022/01/17 08:46:28;;;;;;;3.47;2.30;;;;;;;4.73;100.00;97617.53;5013478;28;101920;-60
2022/01/17 08:49:07;;;;;;;2.33;2.13;;;;;;;4.75;100.00;97626.06;5013277;28;105201;-61
2022/01/17 08:51:34;;;;;;;4.03;2.53;;;;;;;4.76;100.00;97640.88;5031199;28;102714;-61
2022/01/17 08:54:01;;;;;;;2.40;2.20;;;;;;;4.82;100.00;97634.88;5018047;28;101976;-61
2022/01/17 08:56:30;;;;;;;2.57;2.30;;;;;;;4.87;100.00;97640.41;5016162;28;104863;-61
2022/01/17 08:59:05;;;;;;;3.13;2.30;;;;;;;4.91;100.00;97644.31;5013169;28;101899;-61
2022/01/17 09:01:32;;;;;;;2.57;2.30;;;;;;;4.95;100.00;97648.19;5031756;28;102808;-61
2022/01/17 09:03:59;;;;;;;2.27;2.07;;;;;;;4.99;100.00;97660.84;5031658;27;104734;-61
2022/01/17 09:06:27;;;;;;;2.93;2.27;;;;;;;5.01;100.00;97673.81;5033154;27;101972;-61
2022/01/17 09:08:54;;;;;;;2.50;2.30;;;;;;;5.04;100.00;97665.56;5033095;27;105013;-61
2022/01/17 09:11:23;;;;;;;1.83;1.73;;;;;;;5.07;100.00;97668.63;5032833;27;105486;-60
2022/01/17 09:13:52;;;;;;;2.63;1.80;;;;;;;5.09;100.00;97676.38;5027513;28;103455;-60
2022/01/17 09:16:21;;;;;;;2.17;2.07;;;;;;;5.08;100.00;97695.84;5046387;27;104345;-61
2022/01/17 09:18:49;;;;;;;3.00;2.00;;;;;;;5.11;100.00;97704.19;5015721;28;105043;-60
2022/01/17 09:21:17;;;;;;;2.43;2.00;;;;;;;5.10;100.00;97714.91;5012923;28;105028;-61
2022/01/17 09:23:44;;;;;;;3.53;2.33;;;;;;;5.14;100.00;97721.47;5017173;27;105074;-63
2022/01/17 09:26:13;;;;;;;2.77;2.50;;;;;;;5.12;100.00;97732.19;5033013;27;101923;-63
2022/01/17 09:28:48;;;;;;;2.67;2.30;;;;;;;5.13;100.00;97722.47;5029601;28;104302;-63
2022/01/17 09:31:14;;;;;;;2.50;2.30;;;;;;;5.14;100.00;97718.81;5035774;27;103111;-63
2022/01/17 09:33:43;;;;;;;3.47;2.43;;;;;;;5.17;100.00;97728.97;5032661;27;101809;-64
2022/01/17 09:36:10;;;;;;;3.70;2.37;;;;;;;5.20;100.00;97705.72;5051078;27;102517;-61
2022/01/17 09:38:44;;;;;;;3.27;2.03;;;;;;;5.23;100.00;97683.44;5031813;27;105725;-59
2022/01/17 09:41:38;;;;;;;1.97;1.77;;;;;;;5.25;100.00;97687.50;5036407;27;101701;-59
2022/01/17 09:44:05;;;;;;;1.87;1.77;;;;;;;5.31;100.00;97691.22;5028451;28;104391;-59
2022/01/17 09:46:37;;;;;;;1.87;1.73;;;;;;;5.35;100.00;97717.03;5012708;28;101990;-59
2022/01/17 09:49:35;;;;;;;2.20;2.00;;;;;;;5.37;100.00;97699.22;5012376;28;105106;-59
2022/01/17 09:54:47;;;;;;;1.97;1.60;;;;;;;5.37;100.00;97698.41;4998631;28;102131;-59
2022/01/17 09:57:15;;;;;;;2.23;2.03;;;;;;;5.37;100.00;97703.69;5017341;27;104928;-59
2022/01/17 09:59:43;;;;;;;2.80;1.77;;;;;;;5.37;100.00;97706.31;5031779;27;103876;-60
2022/01/17 10:02:13;;;;;;;1.60;1.50;;;;;;;5.30;100.00;97721.25;5032489;27;101732;-60
2022/01/17 10:04:42;;;;;;;2.27;2.17;;;;;;;5.34;100.00;97698.78;5035144;27;105524;-60
2022/01/17 10:07:10;;;;;;;2.20;2.00;;;;;;;5.32;100.00;97687.59;5031998;27;103293;-60
2022/01/17 10:09:40;;;;;;;2.13;1.93;;;;;;;5.34;100.00;97699.59;5050696;27;102690;-60
2022/01/17 10:12:16;;;;;;;2.97;2.37;;;;;;;5.39;100.00;97705.13;5056105;27;105466;-60
2022/01/17 10:14:45;;;;;;;2.13;1.93;;;;;;;5.41;100.00;97697.03;5031729;27;102234;-60
2022/01/17 10:17:15;;;;;;;2.23;1.90;;;;;;;5.38;100.00;97684.19;5032240;27;105557;-60
2022/01/17 10:19:58;;;;;;;1.97;1.80;;;;;;;5.43;100.00;97680.00;5031238;27;106389;-60
2022/01/17 10:22:34;;;;;;;2.80;1.80;;;;;;;5.48;100.00;97679.44;5029716;27;101947;-60
2022/01/17 10:25:21;;;;;;;2.43;1.77;;;;;;;5.41;100.00;97686.47;5032005;27;105068;-61
2022/01/17 10:28:35;;;;;;;2.10;1.80;;;;;;;5.33;100.00;97684.78;5036099;27;105594;-60
2022/01/17 10:34:53;;;;;;;2.80;2.03;;;;;;;5.34;100.00;97690.88;5035530;27;105306;-61
2022/01/17 10:37:11;;;;;;;2.77;2.13;;;;;;;5.34;100.00;97675.84;5035621;27;101946;-61
2022/01/17 10:39:51;;;;;;;1.70;1.60;;;;;;;5.41;100.00;97679.38;5035508;27;105069;-61
2022/01/17 10:42:34;;;;;;;1.80;1.70;;;;;;;5.46;100.00;97663.00;5034833;27;105121;-61
2022/01/17 10:45:07;;;;;;;2.70;2.03;;;;;;;5.46;100.00;97655.88;5032104;28;102945;-60
2022/01/17 10:47:48;;;;;;;2.33;2.10;;;;;;;5.61;100.00;97661.09;5027065;27;105337;-61
2022/01/17 10:50:18;;;;;;;2.30;2.10;;;;;;;5.56;100.00;97663.50;5038437;27;105079;-60
2022/01/17 10:52:50;;;;;;;2.67;2.33;;;;;;;5.55;100.00;97664.50;5033692;28;103030;-60
2022/01/17 10:55:20;;;;;;;2.93;2.40;;;;;;;5.53;100.00;97663.88;5014674;28;105381;-62
2022/01/17 10:58:25;;;;;;;7.87;4.43;;;;;;;5.56;100.00;97648.47;5015247;28;101889;-62
2022/01/17 11:00:56;;;;;;;3.80;3.00;;;;;;;5.60;100.00;97633.09;5014876;28;105064;-62
2022/01/17 11:03:26;;;;;;;3.40;2.30;;;;;;;5.64;100.00;97642.25;5028300;28;105321;-62
2022/01/17 11:05:55;;;;;;;4.90;3.30;;;;;;;5.72;100.00;97673.81;5015227;28;101888;-61
2022/01/17 11:08:32;;;;;;;3.40;3.10;;;;;;;5.80;100.00;97673.72;5014871;28;105129;-62
2022/01/17 11:11:38;;;;;;;3.00;1.93;;;;;;;5.84;100.00;97651.22;5014260;28;105437;-61
2022/01/17 11:14:09;;;;;;;2.33;2.10;;;;;;;5.89;100.00;97654.91;5051396;27;101894;-61
2022/01/17 11:16:37;;;;;;;2.00;1.80;;;;;;;5.90;100.00;97651.25;5026436;28;105479;-61
2022/01/17 11:22:14;;;;;;;2.87;2.30;;;;;;;6.03;100.00;97655.81;5013320;27;106278;-62
2022/01/17 11:24:42;;;;;;;3.70;2.17;;;;;;;6.16;100.00;97650.66;5034220;27;106108;-62
2022/01/17 11:27:09;;;;;;;3.97;2.47;;;;;;;6.21;100.00;97661.47;5031331;28;101934;-62
2022/01/17 11:29:37;;;;;;;4.50;2.50;;;;;;;6.20;100.00;97649.25;5064590;27;105450;-61
2022/01/17 11:32:05;;;;;;;4.27;2.40;;;;;;;6.25;100.00;97636.28;5030723;28;104932;-60
2022/01/17 11:34:33;;;;;;;2.53;2.33;;;;;;;6.33;100.00;97633.50;5014569;28;101902;-60
2022/01/17 11:37:00;;;;;;;2.50;2.30;;;;;;;6.32;100.00;97624.75;5017162;28;105660;-60
2022/01/17 11:39:32;;;;;;;2.90;2.40;;;;;;;6.42;100.00;97642.91;5047888;27;101965;-60
2022/01/17 11:42:02;;;;;;;3.03;2.07;;;;;;;6.44;100.00;97628.47;5014311;28;105214;-60
2022/01/17 11:44:37;;;;;;;3.33;2.20;;;;;;;6.49;100.00;97620.00;5013781;28;105460;-60
2022/01/17 11:47:05;;;;;;;3.70;2.27;;;;;;;6.51;100.00;97604.75;5016459;28;102099;-61
2022/01/17 11:49:42;;;;;;;2.20;2.00;;;;;;;6.49;100.00;97596.22;5014234;28;104729;-61
2022/01/17 11:52:29;;;;;;;4.33;2.20;;;;;;;6.53;100.00;97603.53;5014033;28;105255;-62
2022/01/17 11:54:56;;;;;;;2.73;1.77;;;;;;;6.50;100.00;97650.69;5016019;27;101997;-61
2022/01/17 11:57:32;;;;;;;2.20;2.00;;;;;;;6.54;100.00;97628.16;5034408;27;105200;-71
2022/01/17 12:00:04;;;;;;;2.13;1.80;;;;;;;6.57;100.00;97648.91;5037030;27;105234;-61
2022/01/17 12:02:40;;;;;;;2.37;2.17;;;;;;;6.65;100.00;97632.91;5049585;27;102176;-60